Time;durP1;ratioP1;P1;durP2;ratioP2;P2;SDS_P1;SDS_P2;PMS_P1;PMS_P2;Temp;Humidity;BMP_temperature;BMP_pressure;BME280_temperature;BME280_humidity;BME280_pressure;Samples;Min_cycle;Max_cycle;Signal;HPM_P1;HPM_P2
2023/01/14 00:01:00;;;;;;;7.23;2.23;;;7.80;99.90;;;;;;5093054;28;20822;-71
2023/01/14 00:03:27;;;;;;;7.50;1.90;;;7.90;99.90;;;;;;5111168;28;20422;-72
2023/01/14 00:05:58;;;;;;;8.75;2.00;;;7.80;99.90;;;;;;5111752;28;20380;-72
2023/01/14 00:08:24;;;;;;;8.93;2.20;;;7.80;99.90;;;;;;5102156;28;20429;-72
2023/01/14 00:10:50;;;;;;;6.03;1.60;;;7.90;99.90;;;;;;5091343;28;20374;-71
2023/01/14 00:13:15;;;;;;;7.50;1.60;;;7.90;99.90;;;;;;5090562;28;20378;-71
2023/01/14 00:15:49;;;;;;;12.30;2.50;;;8.00;99.90;;;;;;5104741;28;20387;-71
2023/01/14 00:18:15;;;;;;;8.07;2.08;;;7.90;99.90;;;;;;5111617;28;20372;-71
2023/01/14 00:20:40;;;;;;;7.88;1.90;;;8.00;99.90;;;;;;5111307;28;20942;-72
2023/01/14 00:23:06;;;;;;;7.28;2.30;;;8.00;99.90;;;;;;5110772;28;20388;-72
2023/01/14 00:25:34;;;;;;;5.43;2.30;;;7.90;99.90;;;;;;5093260;28;20747;-70
2023/01/14 00:28:00;;;;;;;5.72;3.00;;;7.40;99.90;;;;;;5111507;28;20400;-71
2023/01/14 00:30:25;;;;;;;6.55;2.65;;;7.20;99.90;;;;;;5093307;28;20467;-72
2023/01/14 00:32:51;;;;;;;6.60;2.60;;;7.10;99.90;;;;;;5110779;28;20373;-72
2023/01/14 00:35:16;;;;;;;7.60;2.95;;;6.90;99.90;;;;;;5111358;28;20383;-72
2023/01/14 00:37:42;;;;;;;4.10;2.60;;;6.90;99.90;;;;;;5111207;28;20424;-72
2023/01/14 00:40:08;;;;;;;8.63;2.07;;;7.00;99.90;;;;;;5111338;28;20395;-71
2023/01/14 00:42:33;;;;;;;7.47;2.50;;;7.00;99.90;;;;;;5109495;28;20381;-69
2023/01/14 00:44:59;;;;;;;6.93;2.43;;;6.90;99.90;;;;;;5111140;28;20449;-71
2023/01/14 00:47:24;;;;;;;8.87;2.50;;;7.00;99.90;;;;;;5110895;28;20429;-71
2023/01/14 00:49:50;;;;;;;8.10;2.00;;;7.10;99.90;;;;;;5110909;28;20403;-71
2023/01/14 00:52:15;;;;;;;9.03;2.30;;;7.10;99.90;;;;;;5111206;28;20380;-71
2023/01/14 00:54:41;;;;;;;5.33;2.00;;;7.20;99.90;;;;;;5110382;28;20390;-71
2023/01/14 00:57:06;;;;;;;5.68;2.42;;;7.20;99.90;;;;;;5111025;28;20392;-71
2023/01/14 00:59:32;;;;;;;6.05;2.47;;;7.30;99.90;;;;;;5110981;28;20901;-71
2023/01/14 01:01:57;;;;;;;10.75;1.90;;;7.40;99.90;;;;;;5111082;28;20836;-71
2023/01/14 01:04:24;;;;;;;7.17;2.03;;;7.50;99.90;;;;;;5110107;28;20384;-71
2023/01/14 01:06:49;;;;;;;8.52;1.80;;;7.50;99.90;;;;;;5110850;28;20391;-72
2023/01/14 01:09:15;;;;;;;8.40;2.10;;;7.50;99.90;;;;;;5110781;28;20427;-70
2023/01/14 01:11:40;;;;;;;4.10;1.75;;;7.50;99.90;;;;;;5110728;28;20384;-71
2023/01/14 01:14:06;;;;;;;7.95;2.00;;;7.50;99.90;;;;;;5109564;28;20376;-72
2023/01/14 01:16:31;;;;;;;8.15;1.90;;;7.60;99.90;;;;;;5090427;28;20868;-71
2023/01/14 01:18:58;;;;;;;7.18;1.92;;;7.60;99.90;;;;;;5072201;28;20403;-71
2023/01/14 01:21:24;;;;;;;6.05;2.08;;;7.60;99.90;;;;;;5090395;28;20382;-72
2023/01/14 01:23:50;;;;;;;10.48;2.40;;;7.60;99.90;;;;;;5089862;28;20389;-72
2023/01/14 01:26:18;;;;;;;7.07;2.05;;;7.60;99.90;;;;;;5090327;28;20748;-72
2023/01/14 01:28:48;;;;;;;8.27;2.15;;;7.70;99.90;;;;;;5090903;28;20406;-73
2023/01/14 01:31:14;;;;;;;8.00;2.17;;;7.70;99.90;;;;;;5090866;28;20880;-73
2023/01/14 01:33:40;;;;;;;7.93;1.70;;;7.70;99.90;;;;;;5090095;28;20384;-72
2023/01/14 01:36:11;;;;;;;7.15;1.88;;;7.80;99.90;;;;;;5072339;28;20864;-72
2023/01/14 01:38:37;;;;;;;13.30;2.35;;;7.80;99.90;;;;;;5118874;22;20460;-72
2023/01/14 01:41:03;;;;;;;5.87;2.30;;;7.80;99.90;;;;;;5110260;28;20410;-72
2023/01/14 01:43:30;;;;;;;6.67;2.00;;;7.80;99.90;;;;;;5109529;28;20853;-72
2023/01/14 01:45:56;;;;;;;7.80;2.22;;;7.70;99.90;;;;;;5110171;28;20365;-72
2023/01/14 01:48:37;;;;;;;5.90;2.10;;;7.80;99.90;;;;;;5109903;28;20773;-72
2023/01/14 01:51:09;;;;;;;4.05;1.40;;;7.80;99.90;;;;;;5110217;28;20456;-72
2023/01/14 01:53:39;;;;;;;10.55;2.35;;;7.70;99.90;;;;;;5112240;28;20373;-72
2023/01/14 01:56:08;;;;;;;10.30;2.70;;;7.70;99.90;;;;;;5114171;28;20376;-72
2023/01/14 01:58:35;;;;;;;5.38;1.42;;;7.80;99.90;;;;;;5113960;28;20384;-72
2023/01/14 02:01:01;;;;;;;5.07;1.73;;;7.70;99.90;;;;;;5114012;28;20861;-72
2023/01/14 02:03:36;;;;;;;8.32;2.10;;;7.70;99.90;;;;;;5113311;28;20376;-72
2023/01/14 02:06:01;;;;;;;5.95;2.03;;;7.60;99.90;;;;;;5114120;28;20776;-72
2023/01/14 02:08:27;;;;;;;7.20;1.80;;;7.60;99.90;;;;;;5113658;28;20430;-72
2023/01/14 02:11:14;;;;;;;7.28;1.75;;;7.60;99.90;;;;;;5113976;28;20379;-70
2023/01/14 02:13:55;;;;;;;9.15;2.58;;;7.60;99.90;;;;;;5113319;28;20766;-72
2023/01/14 02:17:06;;;;;;;9.68;2.40;;;7.60;99.90;;;;;;5094349;28;20378;-72
2023/01/14 02:20:05;;;;;;;6.60;2.33;;;7.60;99.90;;;;;;5075166;28;20483;-72
2023/01/14 02:22:56;;;;;;;5.90;1.83;;;7.50;99.90;;;;;;5092773;28;20516;-72
2023/01/14 02:25:50;;;;;;;5.10;2.10;;;7.50;99.90;;;;;;5093552;28;20374;-72
2023/01/14 02:28:36;;;;;;;8.35;2.45;;;7.50;99.90;;;;;;5093320;28;20447;-72
2023/01/14 02:31:12;;;;;;;7.47;2.50;;;7.50;99.90;;;;;;5093175;28;20378;-70
2023/01/14 02:33:45;;;;;;;9.90;1.75;;;7.60;99.90;;;;;;5092441;28;20713;-72
2023/01/14 02:36:47;;;;;;;8.03;2.17;;;7.70;99.90;;;;;;5093047;28;20378;-72
2023/01/14 02:39:15;;;;;;;5.25;1.80;;;7.70;99.90;;;;;;5092699;28;20405;-72
2023/01/14 02:44:42;;;;;;;8.60;1.80;;;7.80;99.90;;;;;;5092004;28;20559;-72
2023/01/14 02:47:30;;;;;;;9.63;2.55;;;7.70;99.90;;;;;;5092649;28;20397;-72
2023/01/14 02:49:57;;;;;;;5.20;2.00;;;7.70;99.90;;;;;;5092713;28;20423;-72
2023/01/14 02:52:24;;;;;;;6.82;1.80;;;7.70;99.90;;;;;;5092537;28;20752;-72
2023/01/14 02:54:58;;;;;;;10.18;2.75;;;7.70;99.90;;;;;;5092177;28;20374;-70
2023/01/14 02:57:55;;;;;;;11.57;2.42;;;7.60;99.90;;;;;;5092473;28;20378;-71
2023/01/14 03:00:22;;;;;;;5.45;1.85;;;7.60;99.90;;;;;;5074267;28;20382;-71
2023/01/14 03:03:28;;;;;;;9.90;2.40;;;7.50;99.90;;;;;;5091605;28;20392;-71
2023/01/14 03:06:24;;;;;;;9.10;2.38;;;7.60;99.90;;;;;;5091698;28;20702;-72
2023/01/14 03:09:23;;;;;;;9.27;2.35;;;7.70;99.90;;;;;;5105845;28;20403;-71
2023/01/14 03:12:10;;;;;;;5.88;1.70;;;7.70;99.90;;;;;;5113155;28;20372;-71
2023/01/14 03:14:45;;;;;;;11.27;2.50;;;7.70;99.90;;;;;;5088873;28;20420;-71
2023/01/14 03:17:19;;;;;;;8.15;1.60;;;7.70;98.80;;;;;;5092474;28;20386;-71
2023/01/14 03:19:56;;;;;;;10.38;2.25;;;7.70;97.80;;;;;;5091973;28;20813;-72
2023/01/14 03:22:25;;;;;;;11.47;2.37;;;7.70;99.90;;;;;;5092934;28;20425;-72
2023/01/14 03:24:53;;;;;;;9.13;2.60;;;7.70;99.90;;;;;;5091970;28;20386;-71
2023/01/14 03:27:23;;;;;;;8.70;1.90;;;7.70;99.90;;;;;;5092538;28;20868;-73
2023/01/14 03:29:55;;;;;;;6.83;1.90;;;7.70;99.90;;;;;;5073937;28;20401;-72
2023/01/14 03:32:26;;;;;;;8.57;2.40;;;7.70;95.80;;;;;;5074051;28;20472;-72
2023/01/14 03:35:21;;;;;;;8.10;2.00;;;7.70;99.90;;;;;;5091894;28;20386;-72
2023/01/14 03:38:03;;;;;;;10.25;1.92;;;7.60;99.90;;;;;;5091817;28;20674;-72
2023/01/14 03:40:34;;;;;;;6.53;1.88;;;7.50;99.90;;;;;;5091808;28;20455;-72
2023/01/14 03:43:09;;;;;;;6.65;2.40;;;7.60;77.10;;;;;;5091398;28;20398;-72
2023/01/14 03:45:38;;;;;;;10.05;2.38;;;7.70;75.50;;;;;;5091892;28;20385;-72
2023/01/14 03:48:05;;;;;;;7.97;2.20;;;7.80;56.80;;;;;;5091875;28;20488;-72
2023/01/14 03:50:40;;;;;;;10.90;2.40;;;7.90;55.10;;;;;;5091783;28;20443;-72
2023/01/14 03:53:19;;;;;;;7.80;2.03;;;7.90;37.30;;;;;;5072894;28;20412;-72
2023/01/14 03:56:17;;;;;;;6.43;1.90;;;8.00;22.60;;;;;;5091895;28;20740;-72
2023/01/14 03:58:52;;;;;;;6.32;1.90;;;8.00;22.90;;;;;;5091303;28;20815;-72
2023/01/14 04:01:26;;;;;;;8.63;2.30;;;8.10;30.90;;;;;;5091411;28;20949;-71
2023/01/14 04:03:53;;;;;;;6.65;1.70;;;8.10;13.70;;;;;;5090683;28;20879;-72
2023/01/14 04:06:18;;;;;;;7.25;1.90;;;8.10;17.40;;;;;;5091265;28;20856;-72
2023/01/14 04:08:45;;;;;;;7.13;2.40;;;8.00;31.90;;;;;;5103218;28;20435;-72
2023/01/14 04:11:10;;;;;;;7.63;1.90;;;8.00;33.50;;;;;;5111628;28;20372;-72
2023/01/14 04:16:20;;;;;;;3.63;1.70;;;8.00;35.50;;;;;;5092149;28;20417;-72
2023/01/14 04:18:46;;;;;;;6.30;1.90;;;8.10;29.70;;;;;;5090920;28;20410;-72
2023/01/14 04:21:11;;;;;;;5.13;1.70;;;8.10;1.00;;;;;;5091119;28;20864;-72
2023/01/14 04:23:37;;;;;;;5.70;1.50;;;8.10;14.40;;;;;;5090277;28;20393;-72
2023/01/14 04:26:02;;;;;;;7.28;1.50;;;8.10;1.00;;;;;;5071577;28;20895;-72
2023/01/14 04:28:28;;;;;;;8.75;1.48;;;8.20;1.00;;;;;;5072700;28;20413;-72
2023/01/14 04:30:54;;;;;;;6.50;2.40;;;8.30;1.00;;;;;;5090955;28;20819;-72
2023/01/14 04:33:20;;;;;;;7.72;1.75;;;8.20;1.00;;;;;;5090481;28;20792;-72
2023/01/14 04:35:48;;;;;;;6.82;2.10;;;8.10;1.00;;;;;;5091234;28;20482;-72
2023/01/14 04:38:18;;;;;;;8.07;1.80;;;8.30;1.00;;;;;;5090941;28;20614;-73
2023/01/14 04:40:43;;;;;;;8.55;1.90;;;8.20;1.00;;;;;;5091227;28;20420;-73
2023/01/14 04:43:09;;;;;;;4.93;1.80;;;8.20;1.00;;;;;;5090447;28;20378;-72
2023/01/14 04:45:35;;;;;;;5.67;1.67;;;8.20;1.00;;;;;;5090963;28;20386;-72
2023/01/14 04:48:02;;;;;;;4.20;1.40;;;8.20;1.00;;;;;;5090975;28;20402;-72
2023/01/14 04:50:30;;;;;;;5.75;2.20;;;8.20;1.00;;;;;;5090846;28;20379;-72
2023/01/14 04:53:03;;;;;;;5.43;1.88;;;8.20;1.00;;;;;;5090301;28;20385;-73
2023/01/14 04:55:29;;;;;;;6.95;2.10;;;8.30;99.90;;;;;;5072795;28;20393;-72
2023/01/14 04:57:54;;;;;;;3.25;1.00;;;8.40;1.00;;;;;;5090882;28;20388;-72
2023/01/14 05:00:20;;;;;;;3.50;1.40;;;8.40;1.00;;;;;;5090712;28;20450;-73
2023/01/14 05:02:45;;;;;;;4.10;1.30;;;8.40;1.00;;;;;;5090056;28;20822;-72
2023/01/14 05:05:11;;;;;;;2.20;0.90;;;8.30;1.00;;;;;;5090598;28;20397;-73
2023/01/14 05:07:36;;;;;;;2.80;1.47;;;8.40;1.00;;;;;;5093402;28;20881;-72
2023/01/14 05:10:02;;;;;;;4.27;1.37;;;8.40;1.00;;;;;;5111125;28;20400;-72
2023/01/14 05:12:28;;;;;;;6.27;1.50;;;8.40;99.90;;;;;;5110704;28;20380;-72
2023/01/14 05:14:53;;;;;;;2.47;1.40;;;8.40;99.90;;;;;;5103381;28;20732;-73
2023/01/14 05:17:19;;;;;;;6.13;1.50;;;8.40;99.90;;;;;;5090633;28;20378;-73
2023/01/14 05:19:44;;;;;;;4.90;1.30;;;8.30;1.00;;;;;;5090452;28;20386;-72
2023/01/14 05:22:10;;;;;;;4.30;1.10;;;8.30;1.00;;;;;;5090608;28;20864;-73
2023/01/14 05:24:35;;;;;;;3.30;1.10;;;8.40;99.90;;;;;;5089812;28;20797;-72
2023/01/14 05:27:01;;;;;;;5.40;1.10;;;8.40;99.90;;;;;;5090664;28;20404;-73
2023/01/14 05:29:26;;;;;;;2.23;0.90;;;8.40;1.00;;;;;;5094554;28;20404;-72
2023/01/14 05:31:52;;;;;;;2.80;0.90;;;8.40;99.90;;;;;;5094789;28;20386;-73
2023/01/14 05:34:18;;;;;;;4.43;1.30;;;8.30;1.00;;;;;;5093786;28;20895;-73
2023/01/14 05:36:44;;;;;;;3.50;1.20;;;8.30;1.00;;;;;;5094662;28;20378;-72
2023/01/14 05:39:10;;;;;;;6.60;1.60;;;8.30;1.00;;;;;;5094421;28;20405;-72
2023/01/14 05:45:37;;;;;;;5.10;1.20;;;8.40;1.00;;;;;;5094621;28;20390;-73
2023/01/14 05:47:05;;;;;;;2.88;1.05;;;8.40;1.00;;;;;;5094417;28;20444;-72
2023/01/14 05:49:30;;;;;;;2.05;1.20;;;8.50;1.00;;;;;;5094294;28;20401;-72
2023/01/14 05:51:56;;;;;;;2.30;0.90;;;8.60;1.00;;;;;;5094346;28;20480;-73
2023/01/14 05:54:21;;;;;;;3.47;0.83;;;8.60;99.90;;;;;;5099889;27;20423;-73
2023/01/14 05:56:47;;;;;;;2.87;1.30;;;8.70;99.90;;;;;;5104053;27;20400;-72
2023/01/14 05:59:12;;;;;;;5.35;1.20;;;8.70;99.90;;;;;;5105561;27;20394;-73
2023/01/14 06:07:06;;;;;;;2.40;0.90;;;8.70;99.90;;;;;;5108413;27;20393;-73
2023/01/14 06:09:33;;;;;;;2.77;0.73;;;8.60;1.00;;;;;;5103170;28;20400;-73
2023/01/14 06:12:05;;;;;;;3.70;1.20;;;8.80;99.90;;;;;;5102209;28;20824;-73
2023/01/14 06:14:34;;;;;;;3.60;1.30;;;8.80;99.90;;;;;;5090248;28;20388;-73
2023/01/14 06:17:04;;;;;;;1.67;0.80;;;8.80;1.00;;;;;;5108587;28;20405;-72
2023/01/14 06:19:30;;;;;;;3.55;1.30;;;8.80;99.90;;;;;;5109852;28;20385;-72
2023/01/14 06:21:56;;;;;;;2.03;0.70;;;8.80;1.00;;;;;;5089118;28;20447;-73
2023/01/14 06:24:21;;;;;;;2.90;0.90;;;8.80;99.90;;;;;;5104104;28;20382;-72
2023/01/14 06:26:47;;;;;;;3.40;0.93;;;8.70;1.00;;;;;;5102257;28;20434;-72
2023/01/14 06:29:12;;;;;;;1.60;0.70;;;8.70;1.00;;;;;;5102238;28;20398;-72
2023/01/14 06:31:40;;;;;;;2.15;0.70;;;8.80;1.00;;;;;;5085636;28;20377;-72
2023/01/14 06:34:07;;;;;;;1.75;0.70;;;9.00;99.90;;;;;;5103470;28;20378;-71
2023/01/14 06:36:34;;;;;;;2.65;0.70;;;9.10;19.90;;;;;;5102038;28;20385;-71
2023/01/14 06:39:00;;;;;;;2.00;0.65;;;9.20;99.90;;;;;;5085534;28;20404;-72
2023/01/14 06:41:25;;;;;;;1.80;0.60;;;9.30;99.90;;;;;;5109468;28;20395;-72
2023/01/14 06:43:51;;;;;;;1.42;0.63;;;9.30;99.90;;;;;;5103954;28;20385;-71
2023/01/14 06:46:17;;;;;;;1.92;0.50;;;9.50;99.90;;;;;;5103402;28;20543;-72
2023/01/14 06:48:43;;;;;;;0.90;0.50;;;9.50;99.90;;;;;;5103155;28;20406;-73
2023/01/14 06:51:12;;;;;;;1.60;0.50;;;9.50;99.90;;;;;;5083541;28;20402;-73
2023/01/14 06:53:42;;;;;;;1.77;0.80;;;9.60;99.90;;;;;;5084295;28;20384;-73
2023/01/14 06:56:13;;;;;;;1.02;0.57;;;9.60;99.90;;;;;;5103712;28;20907;-72
2023/01/14 06:58:39;;;;;;;1.42;0.70;;;9.50;99.90;;;;;;5084591;28;20386;-72
2023/01/14 07:01:05;;;;;;;1.50;0.70;;;9.50;1.00;;;;;;5107727;28;20394;-72
2023/01/14 07:03:31;;;;;;;1.10;0.50;;;9.60;99.90;;;;;;5105812;28;20388;-72
2023/01/14 07:05:59;;;;;;;1.40;0.60;;;9.60;99.90;;;;;;5083874;28;20906;-73
2023/01/14 07:08:24;;;;;;;0.90;0.40;;;9.60;99.90;;;;;;5102598;28;20490;-73
2023/01/14 07:10:50;;;;;;;0.73;0.60;;;9.60;99.90;;;;;;5083267;28;20410;-72
2023/01/14 07:13:17;;;;;;;1.60;0.70;;;9.60;99.90;;;;;;5084466;28;20377;-72
2023/01/14 07:15:44;;;;;;;2.38;0.68;;;9.50;1.00;;;;;;5085675;28;20381;-72
2023/01/14 07:18:10;;;;;;;2.30;0.50;;;9.50;99.90;;;;;;5101286;28;20384;-72
2023/01/14 07:20:35;;;;;;;1.38;0.52;;;9.50;1.00;;;;;;5097641;28;20392;-72
2023/01/14 07:23:02;;;;;;;1.00;0.40;;;9.60;99.90;;;;;;5091869;28;20378;-72
2023/01/14 07:25:27;;;;;;;0.98;0.43;;;9.80;99.90;;;;;;5092424;28;20394;-72
2023/01/14 07:27:53;;;;;;;1.73;0.80;;;9.80;99.90;;;;;;5092402;28;20455;-72
2023/01/14 07:30:18;;;;;;;2.33;0.90;;;9.70;99.90;;;;;;5092418;28;20394;-72
2023/01/14 07:32:44;;;;;;;1.30;0.70;;;9.70;99.90;;;;;;5091751;28;20370;-72
2023/01/14 07:35:09;;;;;;;1.50;0.60;;;9.70;99.90;;;;;;5092652;28;20406;-72
2023/01/14 07:37:35;;;;;;;1.20;0.50;;;9.70;99.90;;;;;;5074079;28;20899;-74
2023/01/14 07:40:00;;;;;;;2.30;0.70;;;9.70;99.90;;;;;;5092398;28;20477;-73
2023/01/14 07:42:26;;;;;;;3.73;0.70;;;9.70;99.90;;;;;;5092066;28;20733;-72
2023/01/14 07:44:52;;;;;;;1.87;0.70;;;9.80;99.90;;;;;;5092111;28;20465;-74
2023/01/14 07:47:17;;;;;;;1.37;0.80;;;9.90;99.90;;;;;;5092294;28;20486;-72
2023/01/14 07:49:43;;;;;;;1.60;0.70;;;9.90;99.90;;;;;;5091715;28;20477;-72
2023/01/14 07:52:12;;;;;;;1.20;0.50;;;9.90;99.90;;;;;;5092125;28;20382;-72
2023/01/14 07:54:38;;;;;;;0.97;0.80;;;9.90;99.90;;;;;;5073142;28;20911;-71
2023/01/14 07:57:04;;;;;;;3.15;0.80;;;9.90;99.90;;;;;;5091946;28;20887;-72
2023/01/14 07:59:29;;;;;;;0.80;0.43;;;9.90;99.90;;;;;;5091862;28;20455;-71
2023/01/14 08:01:55;;;;;;;1.60;0.60;;;9.90;99.90;;;;;;5091810;28;20491;-71
2023/01/14 08:04:20;;;;;;;1.90;0.60;;;9.90;99.90;;;;;;5090918;28;20753;-71
2023/01/14 08:06:46;;;;;;;1.00;0.40;;;9.80;99.90;;;;;;5091632;28;20385;-71
2023/01/14 08:09:11;;;;;;;3.00;0.90;;;9.80;99.90;;;;;;5107691;28;20484;-71
2023/01/14 08:11:37;;;;;;;1.30;0.70;;;9.80;99.90;;;;;;5112110;28;20870;-71
2023/01/14 08:14:03;;;;;;;2.22;0.63;;;9.70;99.90;;;;;;5111151;28;20901;-71
2023/01/14 08:16:28;;;;;;;1.50;0.50;;;9.80;99.90;;;;;;5091525;28;20385;-72
2023/01/14 08:18:54;;;;;;;1.50;0.70;;;9.80;99.90;;;;;;5091368;28;20748;-71
2023/01/14 08:21:20;;;;;;;2.30;0.60;;;9.80;99.90;;;;;;5091475;28;20476;-72
2023/01/14 08:23:45;;;;;;;0.90;0.40;;;9.80;99.90;;;;;;5090755;28;20389;-72
2023/01/14 08:26:13;;;;;;;1.40;0.70;;;9.80;99.90;;;;;;5091488;28;20394;-72
2023/01/14 08:28:39;;;;;;;1.38;0.50;;;9.90;99.90;;;;;;5091294;28;20394;-71
2023/01/14 08:31:13;;;;;;;1.00;0.50;;;9.90;99.90;;;;;;5091647;28;20382;-71
2023/01/14 08:33:40;;;;;;;1.47;0.50;;;9.90;99.90;;;;;;5090493;28;20374;-72
2023/01/14 08:36:08;;;;;;;2.00;0.70;;;10.00;99.90;;;;;;5091234;28;20382;-72
2023/01/14 08:38:39;;;;;;;1.00;0.60;;;10.10;99.90;;;;;;5090957;28;20946;-72
2023/01/14 08:41:09;;;;;;;1.48;0.50;;;10.10;99.90;;;;;;5091170;28;20393;-72
2023/01/14 08:43:35;;;;;;;1.40;0.50;;;10.00;99.90;;;;;;5090526;28;20744;-72
2023/01/14 08:46:02;;;;;;;0.90;0.70;;;10.10;99.90;;;;;;5090954;28;20401;-72
2023/01/14 08:48:29;;;;;;;2.17;0.90;;;10.20;99.90;;;;;;5090847;28;20398;-72
2023/01/14 08:51:06;;;;;;;1.20;0.55;;;10.30;99.90;;;;;;5091018;28;20386;-72
2023/01/14 08:53:35;;;;;;;1.20;0.50;;;10.20;99.90;;;;;;5090217;28;20868;-71
2023/01/14 08:56:02;;;;;;;1.98;0.50;;;10.20;99.90;;;;;;5072803;28;20427;-72
2023/01/14 08:58:27;;;;;;;1.38;0.60;;;10.30;99.90;;;;;;5090625;28;20381;-72
2023/01/14 09:01:01;;;;;;;1.70;0.70;;;10.30;99.90;;;;;;5090917;28;20725;-71
2023/01/14 09:03:30;;;;;;;1.50;0.85;;;10.40;99.90;;;;;;5071078;28;20764;-72
2023/01/14 09:06:06;;;;;;;0.90;0.57;;;10.40;99.90;;;;;;5072897;28;20400;-74
2023/01/14 09:17:05;;;;;;;0.82;0.60;;;10.50;98.20;;;;;;5090795;28;20409;-73
2023/01/14 09:19:36;;;;;;;0.90;0.60;;;10.50;97.50;;;;;;5090595;28;20386;-72
2023/01/14 09:22:02;;;;;;;1.30;0.50;;;10.50;96.80;;;;;;5090553;28;20385;-72
2023/01/14 09:24:28;;;;;;;1.20;0.70;;;10.50;97.20;;;;;;5089709;28;20884;-72
2023/01/14 09:26:53;;;;;;;1.80;0.73;;;10.50;97.20;;;;;;5106860;28;20404;-72
2023/01/14 09:29:18;;;;;;;1.20;0.50;;;10.50;96.00;;;;;;5109924;28;20493;-72
2023/01/14 09:31:44;;;;;;;1.35;0.57;;;10.60;96.40;;;;;;5110492;28;20810;-72
2023/01/14 09:34:09;;;;;;;1.90;0.70;;;10.60;95.40;;;;;;5110174;28;20459;-72
2023/01/14 09:36:35;;;;;;;1.20;0.70;;;10.60;96.80;;;;;;5110762;28;20502;-71
2023/01/14 09:39:00;;;;;;;0.90;0.50;;;10.60;95.90;;;;;;5110528;28;20425;-72
2023/01/14 09:41:32;;;;;;;1.38;0.50;;;10.50;95.40;;;;;;5110718;28;20750;-72
2023/01/14 09:43:59;;;;;;;1.10;0.50;;;10.50;95.70;;;;;;5109827;28;20935;-72
2023/01/14 09:46:26;;;;;;;3.60;0.80;;;10.50;95.80;;;;;;5111096;28;20746;-72
2023/01/14 09:48:53;;;;;;;3.20;0.95;;;10.60;95.90;;;;;;5110459;28;20439;-71
2023/01/14 09:51:45;;;;;;;1.10;0.50;;;10.50;97.30;;;;;;5091043;28;20380;-70
2023/01/14 09:54:31;;;;;;;1.60;0.70;;;10.60;96.20;;;;;;5109807;28;20387;-72
2023/01/14 09:57:01;;;;;;;1.42;0.52;;;10.50;95.70;;;;;;5103056;28;20382;-71
2023/01/14 09:59:42;;;;;;;2.40;0.70;;;10.50;97.50;;;;;;5090451;28;20378;-72
2023/01/14 10:02:23;;;;;;;0.50;0.45;;;10.50;96.90;;;;;;5090089;28;20374;-72
2023/01/14 10:05:17;;;;;;;1.50;0.57;;;10.60;96.40;;;;;;5071787;28;20935;-71
2023/01/14 10:07:43;;;;;;;0.85;0.50;;;10.50;96.70;;;;;;5093607;28;20395;-71
2023/01/14 10:10:19;;;;;;;2.25;0.60;;;10.60;96.40;;;;;;5110479;28;20387;-72
2023/01/14 10:12:46;;;;;;;1.60;0.50;;;10.60;96.90;;;;;;5109841;28;20739;-70
2023/01/14 10:15:17;;;;;;;0.70;0.50;;;10.60;95.90;;;;;;5103997;28;20385;-71
2023/01/14 10:17:49;;;;;;;1.08;0.70;;;10.70;96.70;;;;;;5093640;28;20370;-71
2023/01/14 10:20:22;;;;;;;1.00;0.40;;;10.70;96.20;;;;;;5093826;28;20767;-71
2023/01/14 10:22:57;;;;;;;1.52;0.50;;;10.70;95.80;;;;;;5093002;28;20389;-71
2023/01/14 10:25:23;;;;;;;2.60;1.00;;;10.90;95.50;;;;;;5093816;28;20435;-71
2023/01/14 10:27:53;;;;;;;3.60;1.60;;;10.90;96.10;;;;;;5091445;28;20396;-71
2023/01/14 10:30:43;;;;;;;1.60;0.50;;;11.10;95.00;;;;;;5093428;28;20390;-72
2023/01/14 10:33:15;;;;;;;1.50;1.10;;;10.90;95.30;;;;;;5091929;28;20474;-72
2023/01/14 10:35:44;;;;;;;0.85;0.50;;;11.00;99.40;;;;;;5093558;28;20389;-72
2023/01/14 10:38:22;;;;;;;0.88;0.65;;;11.00;94.90;;;;;;5105638;28;20441;-72
2023/01/14 10:40:50;;;;;;;1.00;0.40;;;11.10;95.20;;;;;;5095498;28;20925;-72
2023/01/14 10:43:27;;;;;;;0.60;0.40;;;11.10;93.70;;;;;;5094590;28;20424;-72
2023/01/14 10:45:52;;;;;;;0.60;0.50;;;11.20;93.80;;;;;;5113703;28;20749;-72
2023/01/14 10:48:20;;;;;;;1.00;0.60;;;11.20;94.70;;;;;;5113486;28;20408;-72
2023/01/14 10:50:46;;;;;;;1.00;0.50;;;11.20;93.60;;;;;;5113504;28;20467;-72
2023/01/14 10:53:22;;;;;;;0.80;0.40;;;11.30;92.90;;;;;;5112513;28;20380;-72
2023/01/14 10:56:01;;;;;;;0.75;0.40;;;11.10;93.50;;;;;;5091653;28;20381;-72
2023/01/14 10:58:36;;;;;;;1.90;0.50;;;11.20;92.60;;;;;;5110498;27;20380;-73
2023/01/14 11:01:07;;;;;;;1.80;0.40;;;11.20;92.40;;;;;;5106109;27;20376;-73
2023/01/14 11:03:37;;;;;;;0.70;0.50;;;11.10;91.80;;;;;;5106667;27;20885;-73
2023/01/14 11:06:06;;;;;;;1.30;0.40;;;11.10;92.50;;;;;;5126774;27;20418;-73
2023/01/14 11:08:36;;;;;;;1.90;0.60;;;11.10;92.50;;;;;;5105502;27;20410;-73
2023/01/14 11:11:08;;;;;;;0.90;0.40;;;11.20;91.50;;;;;;5119568;27;20456;-74
2023/01/14 11:13:44;;;;;;;2.70;0.80;;;11.30;91.50;;;;;;5117011;27;20801;-74
2023/01/14 11:16:30;;;;;;;1.02;0.60;;;11.40;91.10;;;;;;5108093;27;20398;-74
2023/01/14 11:19:20;;;;;;;1.02;0.45;;;11.40;90.60;;;;;;5109112;27;20792;-74
2023/01/14 11:21:50;;;;;;;0.73;0.60;;;11.30;89.90;;;;;;5106266;27;20884;-74
2023/01/14 11:24:29;;;;;;;1.67;0.50;;;11.20;90.10;;;;;;5110898;27;20460;-74
2023/01/14 11:27:07;;;;;;;1.90;0.40;;;11.20;87.70;;;;;;5106777;27;20384;-73
2023/01/14 11:29:41;;;;;;;2.30;0.63;;;11.40;86.20;;;;;;5108383;28;20758;-74
2023/01/14 11:32:21;;;;;;;1.30;0.60;;;11.50;86.50;;;;;;5113626;27;20710;-74
2023/01/14 11:34:59;;;;;;;1.40;0.90;;;11.70;86.40;;;;;;5111667;28;20403;-74
2023/01/14 11:37:42;;;;;;;1.15;0.40;;;11.60;83.20;;;;;;5112439;28;20385;-74
2023/01/14 11:43:21;;;;;;;1.70;0.70;;;11.20;80.80;;;;;;5102768;27;20387;-75
2023/01/14 11:46:02;;;;;;;2.33;0.70;;;11.30;80.90;;;;;;5087533;28;20827;-74
2023/01/14 11:48:29;;;;;;;1.30;0.50;;;11.40;80.00;;;;;;5105755;28;20428;-75
2023/01/14 11:51:03;;;;;;;2.10;0.80;;;11.40;81.70;;;;;;5082674;28;20476;-75
2023/01/14 11:53:50;;;;;;;1.00;0.60;;;11.50;79.40;;;;;;5100247;28;20372;-75
2023/01/14 11:56:22;;;;;;;0.60;0.40;;;11.50;83.30;;;;;;5094425;28;20439;-75
2023/01/14 11:58:48;;;;;;;1.27;0.50;;;11.60;79.10;;;;;;5091828;28;20389;-74
2023/01/14 12:01:28;;;;;;;2.30;0.60;;;11.30;79.50;;;;;;5091782;28;20378;-74
2023/01/14 12:04:05;;;;;;;1.40;0.70;;;11.20;81.30;;;;;;5109522;28;20392;-74
2023/01/14 12:06:45;;;;;;;1.10;0.50;;;11.10;80.20;;;;;;5112097;28;20866;-74
2023/01/14 12:09:24;;;;;;;1.90;0.70;;;11.10;81.60;;;;;;5077472;28;20406;-74
2023/01/14 12:11:58;;;;;;;1.65;0.70;;;11.10;82.40;;;;;;5091487;28;20895;-74
2023/01/14 12:17:49;;;;;;;1.15;0.50;;;11.20;77.60;;;;;;5112050;28;20433;-74
2023/01/14 12:20:18;;;;;;;1.40;1.00;;;11.10;77.70;;;;;;5111753;28;20379;-73
2023/01/14 12:23:06;;;;;;;1.40;0.60;;;11.10;76.10;;;;;;5110915;28;20376;-73
2023/01/14 12:25:42;;;;;;;1.60;0.50;;;11.10;75.70;;;;;;5112004;28;20475;-73
2023/01/14 12:28:18;;;;;;;1.50;0.60;;;11.10;75.70;;;;;;5111591;28;20865;-73
2023/01/14 12:31:05;;;;;;;0.40;0.35;;;11.10;74.70;;;;;;5107613;28;20465;-73
2023/01/14 12:33:45;;;;;;;1.17;0.67;;;11.10;71.10;;;;;;5072204;28;20543;-73
2023/01/14 12:36:17;;;;;;;0.80;0.50;;;11.10;70.80;;;;;;5091111;28;20386;-73
2023/01/14 12:47:35;;;;;;;1.25;0.70;;;11.20;67.50;;;;;;5111348;28;20461;-74
2023/01/14 12:50:08;;;;;;;1.40;0.50;;;11.20;70.90;;;;;;5092841;28;20408;-74
2023/01/14 12:52:38;;;;;;;1.48;1.08;;;11.20;66.60;;;;;;5110454;28;20738;-74
2023/01/14 12:55:05;;;;;;;0.90;0.50;;;11.30;61.70;;;;;;5111194;28;20467;-73
2023/01/14 12:57:35;;;;;;;1.57;0.60;;;11.40;61.70;;;;;;5111255;28;20385;-74
2023/01/14 13:00:10;;;;;;;1.00;0.70;;;11.40;57.40;;;;;;5111071;28;20377;-73
2023/01/14 13:02:45;;;;;;;1.80;0.82;;;11.70;53.50;;;;;;5110513;28;20881;-74
2023/01/14 13:05:22;;;;;;;1.20;0.80;;;11.70;53.10;;;;;;5111188;28;20812;-74
2023/01/14 13:07:55;;;;;;;1.00;0.70;;;11.60;54.40;;;;;;5106405;28;20382;-74
2023/01/14 13:10:34;;;;;;;1.90;0.77;;;11.50;52.80;;;;;;5090720;28;20386;-73
2023/01/14 13:13:06;;;;;;;1.05;0.50;;;11.70;48.50;;;;;;5089998;28;20389;-74
2023/01/14 13:15:34;;;;;;;1.20;0.60;;;11.80;46.40;;;;;;5103516;28;20399;-74
2023/01/14 13:18:03;;;;;;;1.10;0.80;;;11.90;45.30;;;;;;5108216;28;20377;-73
2023/01/14 13:20:28;;;;;;;1.25;0.60;;;11.90;44.20;;;;;;5106236;28;20385;-73
2023/01/14 13:22:55;;;;;;;1.20;0.90;;;11.90;42.70;;;;;;5103490;28;20403;-73
2023/01/14 13:25:38;;;;;;;1.20;0.80;;;12.00;42.40;;;;;;5106838;28;20476;-73
2023/01/14 13:28:27;;;;;;;0.80;0.60;;;12.00;41.70;;;;;;5106944;28;20395;-72
2023/01/14 13:31:07;;;;;;;0.80;0.60;;;12.10;40.00;;;;;;5076536;28;20886;-73
2023/01/14 13:33:34;;;;;;;1.00;0.70;;;12.10;40.00;;;;;;5111910;28;20372;-72
2023/01/14 13:36:06;;;;;;;0.80;0.50;;;12.10;38.40;;;;;;5121064;28;20378;-73
2023/01/14 13:38:33;;;;;;;1.48;0.80;;;12.20;38.30;;;;;;5099151;28;20406;-73
2023/01/14 13:41:06;;;;;;;0.95;0.60;;;12.20;38.80;;;;;;5104369;28;20391;-73
2023/01/14 13:43:38;;;;;;;0.75;0.60;;;12.20;38.30;;;;;;5108269;28;20387;-73
2023/01/14 13:46:06;;;;;;;1.33;0.85;;;12.20;36.80;;;;;;5116971;28;20436;-73
2023/01/14 13:48:41;;;;;;;1.07;0.63;;;12.20;37.70;;;;;;5102864;28;20407;-73